Terminal Aerodrome Forecast
Issued by NWS

Home | Current Version | Previous Version | Text Only | Print | Product List | Glossary On
Versions: 1 2 3 4 5 6 7 8 9 10 11 12 13
000
FTUS45 KLKN 250214 AAA
TAFWMC
TAF AMD
KWMC 250214Z 2502/2524 22014G24KT P6SM VCSH FEW030 SCT040
     FM250400 21006KT P6SM SCT030 OVC120
     FM251700 26010G15KT P6SM SCT035 BKN060=

USA.gov is the U.S. government's official web portal to all federal, state and local government web resources and services.